Time;durP1;ratioP1;P1;durP2;ratioP2;P2;SDS_P1;SDS_P2;PMS_P1;PMS_P2;Temp;Humidity;BMP_temperature;BMP_pressure;BME280_temperature;BME280_humidity;BME280_pressure;Samples;Min_cycle;Max_cycle;Signal;HPM_P1;HPM_P2
2021/03/19 00:02:15;;;;;;;9.93;1.93;;;5.10;49.20;;;;;;5056979;28;20932;-49
2021/03/19 00:04:42;;;;;;;4.70;1.73;;;5.10;75.10;;;;;;5042380;28;20575;-49
2021/03/19 00:07:08;;;;;;;5.60;1.90;;;5.20;80.80;;;;;;5054345;28;20199;-50
2021/03/19 00:09:35;;;;;;;2.03;1.50;;;5.20;65.90;;;;;;5055003;28;20299;-50
2021/03/19 00:12:01;;;;;;;3.67;1.87;;;5.20;67.40;;;;;;5051777;28;20194;-49
2021/03/19 00:14:27;;;;;;;4.97;2.37;;;5.20;60.10;;;;;;5056377;28;21523;-49
2021/03/19 00:16:54;;;;;;;7.90;2.70;;;5.30;70.60;;;;;;5057210;28;20236;-50
2021/03/19 00:19:21;;;;;;;5.20;2.67;;;5.40;37.50;;;;;;5057056;28;20268;-49
2021/03/19 00:21:47;;;;;;;5.17;1.87;;;5.40;16.30;;;;;;5059417;28;20628;-48
2021/03/19 00:24:14;;;;;;;4.23;2.03;;;5.20;39.90;;;;;;5043977;28;20267;-49
2021/03/19 00:26:41;;;;;;;7.27;3.07;;;5.30;56.00;;;;;;5056458;28;20199;-50
2021/03/19 00:29:09;;;;;;;10.53;2.47;;;5.20;68.00;;;;;;5059890;28;20203;-50
2021/03/19 00:31:35;;;;;;;6.60;2.27;;;5.20;74.80;;;;;;5061598;28;20678;-48
2021/03/19 00:34:02;;;;;;;2.93;1.93;;;5.10;81.00;;;;;;5059037;28;20229;-50
2021/03/19 00:36:28;;;;;;;5.00;2.07;;;5.10;81.40;;;;;;5057613;28;20211;-49
2021/03/19 00:38:55;;;;;;;5.63;2.37;;;5.10;70.50;;;;;;5057562;28;20265;-48
2021/03/19 00:41:21;;;;;;;5.83;2.00;;;5.10;76.60;;;;;;5057835;28;20731;-49
2021/03/19 00:43:48;;;;;;;4.60;2.27;;;5.10;96.30;;;;;;5056874;28;20220;-49
2021/03/19 00:46:15;;;;;;;6.30;1.90;;;5.00;91.70;;;;;;5060829;28;20234;-50
2021/03/19 00:48:41;;;;;;;4.27;2.30;;;5.00;67.00;;;;;;5056921;28;20209;-49
2021/03/19 00:51:08;;;;;;;9.40;2.50;;;4.90;79.10;;;;;;5056429;28;20196;-48
2021/03/19 00:53:34;;;;;;;5.43;1.53;;;4.80;81.80;;;;;;5061665;28;20598;-48
2021/03/19 00:56:00;;;;;;;5.33;1.97;;;4.80;59.30;;;;;;5058756;28;20205;-48
2021/03/19 00:58:27;;;;;;;2.43;1.93;;;4.80;82.60;;;;;;5055998;28;20599;-49
2021/03/19 01:00:53;;;;;;;3.93;2.00;;;4.70;59.70;;;;;;5056687;28;20692;-49
2021/03/19 01:03:20;;;;;;;4.90;1.73;;;4.60;57.30;;;;;;5055727;28;20209;-49
2021/03/19 01:05:47;;;;;;;2.90;1.97;;;4.60;60.90;;;;;;5040192;28;20246;-49
2021/03/19 01:08:15;;;;;;;4.33;2.60;;;4.60;45.90;;;;;;5054738;28;20594;-48
2021/03/19 01:10:53;;;;;;;6.80;2.23;;;4.60;99.90;;;;;;5058746;28;20209;-49
2021/03/19 01:13:20;;;;;;;4.77;2.30;;;4.70;74.40;;;;;;5057407;28;20232;-48
2021/03/19 01:15:47;;;;;;;4.37;2.03;;;4.50;65.60;;;;;;5058385;28;20203;-50
2021/03/19 01:18:17;;;;;;;6.50;2.60;;;4.60;93.00;;;;;;5056238;28;20224;-49
2021/03/19 01:20:46;;;;;;;2.80;1.70;;;4.50;88.20;;;;;;5058575;28;20654;-49
2021/03/19 01:23:13;;;;;;;5.53;2.37;;;4.50;94.00;;;;;;5053766;28;20225;-49
2021/03/19 01:25:41;;;;;;;3.43;2.10;;;4.60;75.20;;;;;;5057101;28;20273;-49
2021/03/19 01:28:08;;;;;;;5.20;2.27;;;4.50;69.90;;;;;;5039266;28;20312;-49
2021/03/19 01:30:39;;;;;;;2.77;2.17;;;4.40;99.90;;;;;;5045416;28;20263;-48
2021/03/19 01:33:06;;;;;;;2.63;2.00;;;4.40;99.90;;;;;;5058170;28;20200;-49
2021/03/19 01:35:35;;;;;;;3.30;2.10;;;4.50;96.10;;;;;;5058243;28;20206;-50
2021/03/19 01:38:03;;;;;;;3.93;2.53;;;4.40;98.30;;;;;;5056136;28;20203;-48
2021/03/19 01:40:39;;;;;;;3.83;2.20;;;4.30;99.90;;;;;;5055795;28;20204;-49
2021/03/19 01:43:42;;;;;;;5.87;2.37;;;4.30;99.90;;;;;;5056415;28;20307;-48
2021/03/19 01:47:05;;;;;;;3.83;2.10;;;4.20;99.90;;;;;;5057012;28;20211;-46
2021/03/19 01:50:09;;;;;;;4.93;2.20;;;4.20;99.90;;;;;;4994598;28;20766;-48
2021/03/19 01:53:13;;;;;;;2.93;2.07;;;4.30;99.90;;;;;;4997063;28;20213;-47
2021/03/19 01:56:16;;;;;;;6.73;2.63;;;4.10;99.90;;;;;;5055981;28;20603;-47
2021/03/19 01:59:20;;;;;;;2.90;2.20;;;4.10;99.90;;;;;;5057565;28;20214;-48
2021/03/19 02:02:24;;;;;;;4.23;2.47;;;4.10;99.90;;;;;;5058308;28;20281;-48
2021/03/19 02:05:28;;;;;;;4.77;2.97;;;4.10;99.90;;;;;;5055418;28;20268;-47
2021/03/19 02:08:32;;;;;;;3.60;2.67;;;4.10;99.90;;;;;;5054853;28;20212;-49
2021/03/19 02:11:36;;;;;;;5.83;2.40;;;4.20;99.90;;;;;;5056043;28;20197;-48
2021/03/19 02:14:40;;;;;;;2.53;2.17;;;3.90;99.90;;;;;;5057267;28;20695;-50
2021/03/19 02:17:44;;;;;;;3.77;2.60;;;4.00;99.90;;;;;;5053946;28;20199;-49
2021/03/19 02:20:48;;;;;;;4.27;2.60;;;4.00;99.90;;;;;;5054225;28;20214;-50
2021/03/19 02:23:52;;;;;;;3.03;2.40;;;4.00;99.90;;;;;;5055171;28;20261;-47
2021/03/19 02:26:57;;;;;;;3.90;2.63;;;3.90;99.90;;;;;;5056691;28;20203;-49
2021/03/19 02:30:01;;;;;;;3.57;2.70;;;3.90;99.90;;;;;;5054921;28;20282;-48
2021/03/19 02:32:28;;;;;;;5.87;3.23;;;3.70;99.90;;;;;;5057171;28;20244;-47
2021/03/19 02:35:17;;;;;;;5.83;3.17;;;3.90;99.90;;;;;;5054365;28;20219;-49
2021/03/19 02:37:44;;;;;;;4.47;2.83;;;3.90;99.90;;;;;;5057474;28;20246;-48
2021/03/19 02:40:15;;;;;;;5.00;3.03;;;3.80;99.90;;;;;;5055388;28;20681;-49
2021/03/19 02:42:41;;;;;;;6.10;3.20;;;3.70;99.90;;;;;;5041938;28;20256;-48
2021/03/19 02:45:11;;;;;;;5.47;3.13;;;3.70;99.90;;;;;;5058332;28;20274;-48
2021/03/19 02:47:38;;;;;;;6.27;3.50;;;3.60;99.90;;;;;;5055649;28;20692;-48
2021/03/19 02:50:06;;;;;;;5.53;3.77;;;3.70;99.90;;;;;;5050736;28;20333;-47
2021/03/19 02:52:35;;;;;;;8.07;3.43;;;3.70;99.90;;;;;;5058365;28;20203;-47
2021/03/19 02:55:06;;;;;;;6.47;3.33;;;3.60;99.90;;;;;;5056651;28;20235;-47
2021/03/19 02:57:32;;;;;;;5.97;3.63;;;3.50;99.90;;;;;;5055045;28;20234;-48
2021/03/19 02:59:59;;;;;;;6.97;3.70;;;3.50;99.90;;;;;;5053771;28;20598;-47
2021/03/19 03:02:26;;;;;;;5.77;3.73;;;3.50;99.90;;;;;;5056694;28;20657;-49
2021/03/19 03:04:53;;;;;;;11.73;4.00;;;3.60;99.90;;;;;;5054474;28;20670;-47
2021/03/19 03:07:23;;;;;;;8.83;4.20;;;3.50;99.90;;;;;;5052725;28;20241;-50
2021/03/19 03:09:49;;;;;;;5.17;4.33;;;3.50;99.90;;;;;;5052780;28;21044;-49
2021/03/19 03:12:17;;;;;;;9.17;4.33;;;3.50;99.90;;;;;;5033925;28;20226;-49
2021/03/19 03:14:44;;;;;;;6.13;4.37;;;3.50;99.90;;;;;;5056219;28;20343;-49
2021/03/19 03:17:11;;;;;;;5.70;3.67;;;3.50;99.90;;;;;;5053050;28;20196;-49
2021/03/19 03:19:38;;;;;;;6.33;3.70;;;3.40;99.90;;;;;;5053505;28;20195;-47
2021/03/19 03:22:05;;;;;;;6.90;4.40;;;3.40;99.90;;;;;;5055261;28;20915;-49
2021/03/19 03:24:31;;;;;;;4.03;3.37;;;3.40;99.90;;;;;;5056667;28;21017;-47
2021/03/19 03:26:57;;;;;;;5.40;3.80;;;3.40;99.90;;;;;;5024198;28;20609;-48
2021/03/19 03:29:25;;;;;;;5.87;3.80;;;3.40;99.90;;;;;;5050580;28;20302;-49
2021/03/19 03:31:53;;;;;;;6.77;4.37;;;3.40;99.90;;;;;;5056394;28;20258;-49
2021/03/19 03:34:20;;;;;;;4.97;3.57;;;3.30;99.90;;;;;;5058157;28;20230;-49
2021/03/19 03:36:48;;;;;;;6.97;4.27;;;3.30;99.90;;;;;;5058493;28;20288;-50
2021/03/19 03:39:18;;;;;;;4.63;3.37;;;3.40;99.90;;;;;;5056750;28;20252;-50
2021/03/19 03:41:45;;;;;;;5.90;3.43;;;3.40;99.90;;;;;;5043923;28;20683;-49
2021/03/19 03:44:13;;;;;;;6.43;4.23;;;3.20;99.90;;;;;;5055465;28;20573;-49
2021/03/19 03:46:42;;;;;;;5.00;3.90;;;3.30;99.90;;;;;;5057126;28;20646;-48
2021/03/19 03:49:09;;;;;;;6.03;3.90;;;3.30;99.90;;;;;;5053813;28;20261;-48
2021/03/19 03:51:35;;;;;;;4.93;3.47;;;3.30;99.90;;;;;;5056516;28;20227;-48
2021/03/19 03:54:02;;;;;;;7.60;3.90;;;3.20;99.90;;;;;;5042351;28;20225;-48
2021/03/19 03:56:28;;;;;;;7.10;3.60;;;3.30;99.90;;;;;;5054858;28;20373;-48
2021/03/19 03:58:56;;;;;;;7.67;4.27;;;3.30;99.90;;;;;;5052898;28;20289;-49
2021/03/19 04:01:23;;;;;;;7.23;3.83;;;3.30;99.90;;;;;;5054920;28;20326;-49
2021/03/19 04:03:51;;;;;;;5.80;3.43;;;3.20;99.90;;;;;;5041931;28;20247;-48
2021/03/19 04:06:18;;;;;;;7.73;3.63;;;3.10;99.90;;;;;;5054598;28;20199;-49
2021/03/19 04:08:45;;;;;;;6.40;4.10;;;3.00;99.90;;;;;;5055259;28;20191;-49
2021/03/19 04:11:15;;;;;;;8.77;3.93;;;3.00;99.90;;;;;;5053803;28;20225;-49
2021/03/19 04:13:41;;;;;;;4.73;3.63;;;3.10;99.90;;;;;;5055451;28;20749;-49
2021/03/19 04:16:09;;;;;;;5.53;3.50;;;3.20;99.90;;;;;;5042914;28;20235;-48
2021/03/19 04:18:35;;;;;;;4.97;3.23;;;3.20;99.90;;;;;;5053483;28;20214;-47
2021/03/19 04:21:08;;;;;;;5.67;4.37;;;3.20;99.90;;;;;;5053199;28;20204;-48
2021/03/19 04:23:37;;;;;;;7.77;3.33;;;3.20;99.90;;;;;;5054329;28;20215;-47
2021/03/19 04:26:06;;;;;;;5.70;4.17;;;3.10;99.90;;;;;;5055484;28;20199;-48
2021/03/19 04:28:38;;;;;;;4.93;3.80;;;3.10;99.90;;;;;;5049879;28;20205;-47
2021/03/19 04:31:06;;;;;;;6.83;4.87;;;3.20;99.90;;;;;;5055376;28;20219;-47
2021/03/19 04:33:32;;;;;;;8.80;4.40;;;3.10;99.90;;;;;;5054899;28;20208;-48
2021/03/19 04:36:21;;;;;;;9.47;4.63;;;3.10;99.90;;;;;;5037569;28;20208;-50
2021/03/19 04:38:49;;;;;;;6.97;3.87;;;3.20;99.90;;;;;;5058877;28;20299;-48
2021/03/19 04:41:15;;;;;;;6.97;4.63;;;3.10;99.90;;;;;;5058503;28;20245;-46
2021/03/19 04:43:42;;;;;;;9.97;4.20;;;3.10;99.90;;;;;;5059688;28;20353;-47
2021/03/19 04:46:08;;;;;;;8.33;4.03;;;3.10;99.90;;;;;;5060152;28;20197;-47
2021/03/19 04:48:36;;;;;;;8.83;4.40;;;3.20;99.90;;;;;;5058615;28;20196;-47
2021/03/19 04:51:03;;;;;;;7.17;4.50;;;3.20;99.90;;;;;;5054496;28;20537;-48
2021/03/19 04:53:46;;;;;;;7.03;4.30;;;3.30;99.90;;;;;;5056312;28;20590;-48
2021/03/19 04:56:12;;;;;;;5.43;3.80;;;3.30;99.90;;;;;;5057986;28;20260;-47
2021/03/19 04:58:38;;;;;;;7.10;4.77;;;3.20;99.90;;;;;;5057113;28;20289;-47
2021/03/19 05:01:05;;;;;;;7.17;3.73;;;3.30;99.90;;;;;;5057009;28;20321;-47
2021/03/19 05:03:33;;;;;;;4.40;3.33;;;3.40;99.90;;;;;;5057477;28;20674;-47
2021/03/19 05:05:59;;;;;;;9.53;4.50;;;3.30;99.90;;;;;;5056993;28;20668;-46
2021/03/19 05:08:26;;;;;;;4.90;3.40;;;3.20;99.90;;;;;;5054517;28;20717;-46
2021/03/19 05:10:53;;;;;;;6.30;3.30;;;3.10;99.90;;;;;;5056458;28;20195;-47
2021/03/19 05:13:19;;;;;;;8.00;3.80;;;3.00;99.90;;;;;;5056083;28;20622;-48
2021/03/19 05:15:46;;;;;;;6.73;3.70;;;3.00;99.90;;;;;;5042064;28;20220;-48
2021/03/19 05:18:12;;;;;;;5.70;3.83;;;3.10;99.90;;;;;;5055924;28;20697;-48
2021/03/19 05:20:40;;;;;;;4.93;3.83;;;3.10;99.90;;;;;;5056349;28;20206;-49
2021/03/19 05:23:23;;;;;;;5.93;4.00;;;3.00;99.90;;;;;;5058498;28;20260;-45
2021/03/19 05:25:50;;;;;;;7.30;4.13;;;3.10;99.90;;;;;;5057202;28;20211;-46
2021/03/19 05:28:18;;;;;;;7.17;3.70;;;3.00;99.90;;;;;;5055271;28;20212;-47
2021/03/19 05:30:45;;;;;;;10.17;4.27;;;3.00;99.90;;;;;;5053927;28;20720;-46
2021/03/19 05:33:12;;;;;;;8.97;4.20;;;3.00;99.90;;;;;;5057584;28;20195;-48
2021/03/19 05:35:39;;;;;;;5.67;3.50;;;3.00;99.90;;;;;;5056282;28;20198;-48
2021/03/19 05:38:06;;;;;;;6.20;3.67;;;2.90;99.90;;;;;;5057587;28;20286;-48
2021/03/19 05:40:42;;;;;;;6.33;3.87;;;3.00;99.90;;;;;;5055511;28;20203;-47
2021/03/19 05:43:23;;;;;;;11.70;3.67;;;2.90;99.90;;;;;;5057310;28;20227;-46
2021/03/19 05:46:17;;;;;;;6.53;3.53;;;2.80;99.90;;;;;;5057536;28;20245;-46
2021/03/19 05:49:01;;;;;;;11.00;3.80;;;2.70;99.90;;;;;;5041072;28;20208;-48
2021/03/19 05:51:48;;;;;;;4.57;3.20;;;2.80;99.90;;;;;;5056748;28;20558;-48
2021/03/19 05:54:31;;;;;;;5.83;3.43;;;3.00;99.90;;;;;;5057820;28;20202;-49
2021/03/19 05:57:00;;;;;;;5.87;3.97;;;2.90;99.90;;;;;;5059345;28;20261;-50
2021/03/19 05:59:27;;;;;;;6.93;3.40;;;2.80;99.90;;;;;;5056997;28;20203;-49
2021/03/19 06:01:54;;;;;;;5.57;3.33;;;2.80;99.90;;;;;;5059032;28;20231;-49
2021/03/19 06:04:24;;;;;;;7.10;3.40;;;2.80;99.90;;;;;;5047233;28;20258;-49
2021/03/19 06:07:01;;;;;;;4.37;2.93;;;2.80;99.90;;;;;;5055259;28;20208;-49
2021/03/19 06:09:41;;;;;;;6.23;2.97;;;2.90;99.90;;;;;;5057742;28;20301;-46
2021/03/19 06:12:19;;;;;;;4.57;3.30;;;2.90;99.90;;;;;;5054429;28;20320;-49
2021/03/19 06:14:54;;;;;;;4.87;3.33;;;2.80;99.90;;;;;;5057322;28;20206;-48
2021/03/19 06:17:25;;;;;;;4.63;3.47;;;2.80;99.90;;;;;;5055693;28;20206;-49
2021/03/19 06:20:05;;;;;;;4.73;2.30;;;2.90;99.90;;;;;;5043926;28;20326;-47
2021/03/19 06:22:42;;;;;;;5.23;3.27;;;3.00;99.90;;;;;;5056208;28;20202;-47
2021/03/19 06:25:26;;;;;;;9.03;3.23;;;2.90;95.10;;;;;;5058541;28;20639;-47
2021/03/19 06:27:55;;;;;;;3.87;2.70;;;2.80;99.90;;;;;;5055344;28;20207;-48
2021/03/19 06:30:40;;;;;;;4.23;3.03;;;2.90;99.90;;;;;;5054543;28;20270;-48
2021/03/19 06:33:13;;;;;;;6.03;3.30;;;2.90;89.60;;;;;;5055672;28;20204;-50
2021/03/19 06:35:46;;;;;;;5.23;2.70;;;2.90;91.40;;;;;;5052846;28;20253;-49
2021/03/19 06:38:36;;;;;;;5.27;2.60;;;3.00;90.60;;;;;;5046685;28;20277;-48
2021/03/19 06:41:25;;;;;;;4.97;2.33;;;3.00;66.10;;;;;;5049034;28;20211;-49
2021/03/19 06:44:11;;;;;;;7.77;2.40;;;3.10;47.20;;;;;;5055519;28;20216;-55
2021/03/19 06:46:52;;;;;;;5.20;3.07;;;3.10;26.60;;;;;;5055083;28;20203;-47
2021/03/19 06:49:21;;;;;;;5.77;2.50;;;3.20;31.40;;;;;;5054243;28;20631;-50
2021/03/19 06:51:51;;;;;;;4.10;2.50;;;3.40;24.60;;;;;;5053591;28;20195;-47
2021/03/19 06:54:21;;;;;;;4.07;2.70;;;3.40;1.00;;;;;;5054222;28;20235;-47
2021/03/19 06:57:00;;;;;;;3.70;2.87;;;3.50;1.00;;;;;;5055335;28;20231;-47
2021/03/19 06:59:28;;;;;;;4.27;3.07;;;3.70;1.00;;;;;;5038424;28;20316;-47
2021/03/19 07:01:55;;;;;;;6.67;2.63;;;3.50;1.00;;;;;;5044303;28;20242;-48
2021/03/19 07:04:49;;;;;;;3.50;2.43;;;3.60;1.00;;;;;;5056205;28;20567;-46
2021/03/19 07:07:46;;;;;;;5.00;2.93;;;3.70;1.00;;;;;;5054527;28;20204;-51
2021/03/19 07:10:38;;;;;;;4.33;2.43;;;3.80;1.00;;;;;;5055579;28;20713;-47
2021/03/19 07:13:36;;;;;;;5.33;2.60;;;3.80;1.00;;;;;;5046973;28;21349;-47
2021/03/19 07:16:19;;;;;;;5.07;2.27;;;4.20;1.00;;;;;;5052304;28;20214;-49
2021/03/19 07:19:13;;;;;;;2.67;2.30;;;4.40;1.00;;;;;;5051169;28;20720;-48
2021/03/19 07:21:51;;;;;;;4.93;2.73;;;4.40;99.90;;;;;;5052115;28;20279;-47
2021/03/19 07:24:29;;;;;;;3.17;2.30;;;4.60;99.90;;;;;;5050763;28;20290;-46
2021/03/19 07:27:08;;;;;;;6.40;2.47;;;4.50;99.90;;;;;;5054319;28;20201;-48
2021/03/19 07:29:41;;;;;;;4.80;2.67;;;4.60;51.40;;;;;;5056018;28;20495;-49
2021/03/19 07:32:22;;;;;;;7.83;2.53;;;4.80;1.00;;;;;;5050655;28;20281;-49
2021/03/19 07:35:14;;;;;;;3.37;2.10;;;5.00;1.00;;;;;;5053130;28;20211;-49
2021/03/19 07:38:15;;;;;;;5.00;3.20;;;5.10;1.00;;;;;;5054036;28;20236;-48
2021/03/19 07:41:11;;;;;;;2.77;2.33;;;5.60;1.00;;;;;;5052713;28;20294;-49
2021/03/19 07:43:56;;;;;;;6.20;2.43;;;5.30;1.00;;;;;;5052709;28;20218;-48
2021/03/19 07:46:22;;;;;;;4.80;2.10;;;5.50;1.00;;;;;;5056883;28;20197;-48
2021/03/19 07:49:17;;;;;;;3.90;2.80;;;5.60;1.00;;;;;;5051946;28;20204;-49
2021/03/19 07:51:58;;;;;;;5.23;2.87;;;5.70;1.00;;;;;;5053799;28;20211;-48
2021/03/19 07:54:41;;;;;;;6.20;2.50;;;6.00;1.00;;;;;;5055449;28;20257;-49
2021/03/19 07:57:30;;;;;;;3.67;2.60;;;6.60;1.00;;;;;;5056282;28;20628;-49
2021/03/19 08:00:11;;;;;;;5.57;3.37;;;7.00;99.90;;;;;;5052436;28;20258;-50
2021/03/19 08:02:53;;;;;;;5.33;2.80;;;6.90;1.00;;;;;;5056685;28;20662;-49
2021/03/19 08:05:21;;;;;;;4.20;2.50;;;6.70;99.90;;;;;;5056100;28;20588;-46
2021/03/19 08:07:56;;;;;;;3.83;2.63;;;6.80;1.00;;;;;;5054601;28;20266;-49
2021/03/19 08:10:32;;;;;;;3.97;2.20;;;7.50;1.00;;;;;;5054294;28;20244;-50
2021/03/19 08:13:19;;;;;;;3.93;2.37;;;8.00;1.00;;;;;;5059002;28;20218;-49
2021/03/19 08:16:15;;;;;;;3.10;2.33;;;7.90;1.00;;;;;;5044942;28;20823;-49
2021/03/19 08:18:55;;;;;;;6.47;2.23;;;7.50;99.90;;;;;;5054583;28;20245;-49
2021/03/19 08:21:53;;;;;;;9.17;2.10;;;8.00;1.60;;;;;;5056994;28;20590;-47
2021/03/19 08:24:34;;;;;;;5.30;2.43;;;8.40;1.00;;;;;;5060000;28;20249;-51
2021/03/19 08:27:21;;;;;;;6.53;1.73;;;7.90;1.00;;;;;;5057249;28;20238;-50
2021/03/19 08:30:00;;;;;;;5.30;2.30;;;8.30;99.90;;;;;;5058984;28;20201;-50
2021/03/19 08:32:33;;;;;;;3.53;1.77;;;9.00;1.00;;;;;;5056503;28;20771;-49
2021/03/19 08:35:14;;;;;;;4.50;1.53;;;8.90;1.00;;;;;;5059425;28;20219;-50
2021/03/19 08:37:54;;;;;;;1.93;1.63;;;8.80;99.90;;;;;;5052527;28;20315;-48
2021/03/19 08:40:57;;;;;;;4.17;2.07;;;9.20;1.00;;;;;;5058458;28;20215;-48
2021/03/19 08:43:33;;;;;;;7.80;2.10;;;9.30;1.00;;;;;;5056988;28;20276;-48
2021/03/19 08:46:14;;;;;;;2.43;1.73;;;9.80;99.90;;;;;;5056692;28;20203;-48
2021/03/19 08:48:52;;;;;;;2.00;1.77;;;9.60;99.90;;;;;;5054929;28;20643;-49
2021/03/19 08:51:27;;;;;;;3.37;1.43;;;10.00;99.90;;;;;;5056537;28;20260;-49
2021/03/19 08:54:16;;;;;;;1.93;1.30;;;9.80;99.90;;;;;;5057358;28;20221;-50
2021/03/19 08:57:05;;;;;;;3.07;1.40;;;9.90;20.80;;;;;;5058253;28;20250;-50
2021/03/19 08:59:35;;;;;;;4.03;1.70;;;10.20;5.50;;;;;;5058330;28;20847;-49
2021/03/19 09:02:30;;;;;;;3.93;1.50;;;10.30;1.00;;;;;;5052418;28;20239;-50
2021/03/19 09:05:00;;;;;;;4.03;1.37;;;10.70;1.00;;;;;;5033562;28;20266;-49
2021/03/19 09:07:30;;;;;;;3.70;1.33;;;10.70;1.00;;;;;;5050460;28;20206;-48
2021/03/19 09:10:04;;;;;;;3.23;1.53;;;10.70;1.00;;;;;;5052613;28;20594;-49
2021/03/19 09:12:52;;;;;;;3.43;1.50;;;10.70;1.00;;;;;;5034229;28;20712;-48
2021/03/19 09:15:18;;;;;;;2.30;1.40;;;10.20;1.00;;;;;;5055949;28;20210;-49
2021/03/19 09:17:47;;;;;;;1.87;1.33;;;10.20;1.00;;;;;;5040154;28;20915;-48
2021/03/19 09:20:28;;;;;;;1.87;1.23;;;10.30;1.00;;;;;;5049276;28;20693;-49
2021/03/19 09:23:10;;;;;;;7.50;1.50;;;9.50;1.00;;;;;;5048640;28;20916;-48
2021/03/19 09:25:51;;;;;;;3.53;1.30;;;10.50;1.00;;;;;;5049850;28;20244;-48
2021/03/19 09:28:20;;;;;;;1.73;1.30;;;10.40;1.00;;;;;;5047137;28;20228;-49
2021/03/19 09:30:55;;;;;;;4.87;1.30;;;9.90;1.00;;;;;;5051205;28;20202;-50
2021/03/19 09:33:43;;;;;;;3.10;1.40;;;10.00;1.00;;;;;;5047076;28;20209;-48
2021/03/19 09:36:48;;;;;;;3.17;1.60;;;10.60;1.00;;;;;;5050726;28;20405;-48
2021/03/19 09:39:45;;;;;;;1.10;1.00;;;10.90;1.00;;;;;;5052878;28;20304;-48
2021/03/19 09:42:18;;;;;;;1.67;1.10;;;11.10;1.00;;;;;;5051704;28;20203;-48
2021/03/19 09:45:00;;;;;;;2.03;1.33;;;11.00;1.00;;;;;;5048905;28;20676;-49
2021/03/19 09:47:35;;;;;;;2.83;1.20;;;10.80;1.00;;;;;;5048792;28;20200;-47
2021/03/19 09:50:15;;;;;;;2.20;1.20;;;10.90;1.00;;;;;;5053673;28;20265;-48
2021/03/19 09:53:00;;;;;;;2.20;1.50;;;10.70;1.00;;;;;;5053281;28;20232;-48
2021/03/19 09:55:46;;;;;;;2.10;1.53;;;10.60;1.00;;;;;;5051705;28;20284;-49
2021/03/19 09:58:24;;;;;;;3.17;1.20;;;10.20;1.00;;;;;;5050084;28;20206;-50
2021/03/19 10:01:14;;;;;;;2.40;1.53;;;9.90;1.00;;;;;;5051139;28;20255;-50
2021/03/19 10:03:59;;;;;;;2.03;1.50;;;10.20;1.00;;;;;;5052603;28;20611;-50
2021/03/19 10:06:26;;;;;;;2.07;1.37;;;10.60;1.00;;;;;;5050273;28;20321;-51
2021/03/19 10:09:11;;;;;;;3.83;1.37;;;10.90;1.00;;;;;;5054361;28;20825;-49
2021/03/19 10:12:08;;;;;;;3.63;1.77;;;10.70;1.00;;;;;;5054585;28;20645;-50
2021/03/19 10:14:41;;;;;;;3.90;1.60;;;11.00;1.00;;;;;;5053665;28;20214;-50
2021/03/19 10:17:15;;;;;;;4.23;1.70;;;10.80;1.00;;;;;;5051451;28;20201;-50
2021/03/19 10:19:45;;;;;;;2.13;1.30;;;10.70;1.00;;;;;;5054902;28;20637;-53
2021/03/19 10:22:31;;;;;;;2.63;1.47;;;11.00;1.00;;;;;;5054884;28;20567;-49
2021/03/19 10:25:20;;;;;;;3.10;1.27;;;11.30;1.00;;;;;;5055526;28;20242;-49
2021/03/19 10:28:07;;;;;;;2.03;1.33;;;11.50;1.00;;;;;;5049165;28;20232;-52
2021/03/19 10:30:59;;;;;;;5.13;1.73;;;11.30;1.00;;;;;;5054472;28;20641;-49
2021/03/19 10:33:36;;;;;;;2.13;1.57;;;11.40;1.00;;;;;;5046307;28;20202;-48
2021/03/19 10:36:11;;;;;;;1.37;1.27;;;11.90;1.00;;;;;;5040835;28;20205;-50
2021/03/19 10:39:00;;;;;;;1.83;1.43;;;11.30;1.00;;;;;;5057508;28;20255;-50
2021/03/19 10:41:40;;;;;;;6.17;1.57;;;11.30;1.00;;;;;;5058320;28;20584;-50
2021/03/19 10:44:23;;;;;;;4.10;1.60;;;10.90;1.00;;;;;;5058984;28;20715;-51
2021/03/19 10:47:20;;;;;;;3.53;2.10;;;11.10;1.00;;;;;;5058848;28;20231;-49
2021/03/19 10:50:09;;;;;;;3.67;2.03;;;10.80;1.00;;;;;;5053672;28;20204;-50
2021/03/19 10:52:40;;;;;;;2.47;1.30;;;10.70;1.00;;;;;;5057016;28;20207;-50
2021/03/19 10:55:27;;;;;;;2.90;1.47;;;11.10;1.00;;;;;;5057334;28;20193;-49
2021/03/19 10:58:19;;;;;;;5.23;1.50;;;11.10;1.00;;;;;;5054918;28;20196;-50
2021/03/19 11:00:49;;;;;;;3.97;1.80;;;10.90;1.00;;;;;;5057021;28;20832;-50
2021/03/19 11:03:44;;;;;;;3.67;1.50;;;11.10;1.00;;;;;;5057609;28;20213;-49
2021/03/19 11:06:30;;;;;;;2.70;1.50;;;11.40;1.00;;;;;;5056338;28;20212;-49
2021/03/19 11:09:08;;;;;;;2.97;1.87;;;11.80;1.00;;;;;;5054390;28;20203;-49
2021/03/19 11:11:35;;;;;;;2.40;1.50;;;11.70;1.00;;;;;;5035469;28;20625;-50
2021/03/19 11:14:08;;;;;;;3.27;1.90;;;11.10;1.00;;;;;;5057791;28;20200;-51
2021/03/19 11:16:38;;;;;;;1.33;1.10;;;11.20;1.00;;;;;;5056866;28;20671;-50
2021/03/19 11:19:28;;;;;;;3.77;2.00;;;10.10;1.00;;;;;;5039478;28;20216;-49
2021/03/19 11:22:09;;;;;;;1.57;1.20;;;10.30;1.00;;;;;;5046768;28;20221;-49
2021/03/19 11:24:38;;;;;;;4.57;1.77;;;10.30;1.00;;;;;;5057159;28;20342;-48
2021/03/19 11:27:13;;;;;;;6.27;2.20;;;10.50;1.00;;;;;;5055409;28;20226;-50
2021/03/19 11:29:44;;;;;;;2.93;1.60;;;10.30;1.00;;;;;;5038707;28;20710;-49
2021/03/19 11:32:10;;;;;;;6.00;1.70;;;10.70;1.00;;;;;;5040573;28;20760;-50
2021/03/19 11:34:38;;;;;;;2.47;1.37;;;10.90;1.00;;;;;;5057336;28;20280;-49
2021/03/19 11:37:23;;;;;;;2.17;1.20;;;11.10;1.00;;;;;;5056852;28;20606;-50
2021/03/19 11:39:54;;;;;;;3.00;1.40;;;11.80;1.00;;;;;;5056182;28;20816;-51
2021/03/19 11:42:39;;;;;;;2.97;1.60;;;12.10;1.00;;;;;;5057922;28;20200;-52
2021/03/19 11:45:16;;;;;;;2.60;1.27;;;12.20;1.00;;;;;;5040455;28;20258;-50
2021/03/19 11:47:58;;;;;;;2.97;1.20;;;12.00;1.00;;;;;;5057783;28;20201;-49
2021/03/19 11:50:42;;;;;;;2.63;1.10;;;12.40;1.00;;;;;;5060587;28;20242;-51
2021/03/19 11:53:15;;;;;;;2.13;1.07;;;12.60;1.00;;;;;;5063218;28;20250;-50
2021/03/19 11:55:44;;;;;;;1.80;1.20;;;13.20;99.90;;;;;;5059794;28;20715;-51
2021/03/19 11:58:14;;;;;;;1.60;1.37;;;13.20;99.90;;;;;;5061326;28;20203;-52
2021/03/19 12:00:43;;;;;;;3.17;1.40;;;12.70;1.00;;;;;;5057335;28;20260;-48
2021/03/19 12:03:29;;;;;;;2.13;1.00;;;12.80;99.90;;;;;;5049141;28;20246;-50
2021/03/19 12:05:56;;;;;;;2.50;1.20;;;13.10;99.90;;;;;;5060673;28;20206;-49
2021/03/19 12:08:27;;;;;;;2.03;1.17;;;13.90;99.90;;;;;;5061009;28;20533;-50
2021/03/19 12:10:53;;;;;;;3.20;1.07;;;14.00;99.90;;;;;;5058544;28;20199;-50
2021/03/19 12:13:19;;;;;;;5.23;1.10;;;13.60;99.90;;;;;;5055671;28;20640;-50
2021/03/19 12:15:46;;;;;;;3.13;1.27;;;13.20;99.90;;;;;;5057236;28;20645;-51
2021/03/19 12:18:15;;;;;;;1.40;1.20;;;12.70;99.90;;;;;;5058913;28;20236;-51
2021/03/19 12:20:42;;;;;;;2.13;1.37;;;12.90;99.90;;;;;;5057298;28;20651;-51
2021/03/19 12:23:09;;;;;;;2.93;1.30;;;13.10;99.90;;;;;;5055463;28;20199;-51
2021/03/19 12:25:38;;;;;;;2.90;1.07;;;13.00;99.90;;;;;;5058614;28;20633;-51
2021/03/19 12:28:11;;;;;;;2.47;1.10;;;13.90;99.90;;;;;;5058856;28;20678;-52
2021/03/19 12:30:37;;;;;;;2.30;1.30;;;13.70;99.90;;;;;;5059739;28;20203;-51
2021/03/19 12:33:05;;;;;;;2.03;0.90;;;13.20;99.90;;;;;;5058008;28;20259;-50
2021/03/19 12:35:32;;;;;;;2.93;1.00;;;12.70;99.90;;;;;;5059127;28;20200;-50
2021/03/19 12:37:58;;;;;;;2.17;1.20;;;11.80;99.90;;;;;;5052672;28;20200;-51
2021/03/19 12:40:27;;;;;;;1.10;0.90;;;12.50;99.90;;;;;;5055510;28;20532;-50
2021/03/19 12:42:54;;;;;;;1.37;1.20;;;13.30;99.90;;;;;;5055384;28;20192;-50
2021/03/19 12:45:24;;;;;;;3.87;1.00;;;13.50;99.90;;;;;;5057785;28;20384;-52
2021/03/19 12:47:51;;;;;;;1.13;1.00;;;13.20;99.90;;;;;;5039062;28;20207;-49
2021/03/19 12:50:22;;;;;;;2.20;1.30;;;13.60;99.90;;;;;;5052694;28;20292;-50
2021/03/19 12:52:49;;;;;;;1.73;1.00;;;14.00;99.90;;;;;;5057541;28;20204;-49
2021/03/19 12:55:16;;;;;;;3.33;1.60;;;14.00;99.90;;;;;;5058132;28;20296;-50
2021/03/19 12:57:43;;;;;;;3.23;1.10;;;14.40;99.90;;;;;;5056824;28;20273;-50
2021/03/19 13:00:16;;;;;;;4.70;1.20;;;13.80;99.90;;;;;;5056679;28;20215;-51
2021/03/19 13:02:42;;;;;;;1.40;0.93;;;12.80;99.90;;;;;;5057774;28;20309;-50
2021/03/19 13:05:11;;;;;;;1.23;1.13;;;12.60;99.90;;;;;;5056739;28;20212;-51
2021/03/19 13:07:37;;;;;;;0.90;0.90;;;12.50;99.90;;;;;;5050415;28;20252;-49
2021/03/19 13:10:04;;;;;;;2.03;1.00;;;12.70;99.90;;;;;;5052244;28;20291;-51
2021/03/19 13:12:31;;;;;;;5.23;1.53;;;13.20;99.90;;;;;;5039978;28;20204;-50
2021/03/19 13:14:57;;;;;;;2.17;0.90;;;12.50;99.90;;;;;;5042047;28;20541;-50
2021/03/19 13:17:23;;;;;;;2.53;1.20;;;12.60;99.90;;;;;;5051761;28;20204;-49
2021/03/19 13:19:50;;;;;;;2.23;1.17;;;12.40;99.90;;;;;;5052227;28;20226;-50
2021/03/19 13:22:17;;;;;;;1.17;1.00;;;13.40;99.90;;;;;;5054121;28;20534;-49
2021/03/19 13:24:43;;;;;;;1.60;1.07;;;13.40;99.90;;;;;;5055549;28;20760;-50
2021/03/19 13:27:10;;;;;;;2.70;1.60;;;12.90;99.90;;;;;;5055503;28;20683;-51
2021/03/19 13:29:37;;;;;;;1.90;1.10;;;13.50;99.90;;;;;;5055734;28;20203;-50
2021/03/19 13:32:04;;;;;;;2.30;1.30;;;13.20;99.90;;;;;;5053900;28;20276;-51
2021/03/19 13:34:30;;;;;;;2.77;1.17;;;13.40;99.90;;;;;;5056434;28;20644;-50
2021/03/19 13:36:56;;;;;;;1.97;1.57;;;12.80;99.90;;;;;;5057684;28;20222;-51
2021/03/19 13:39:24;;;;;;;1.70;1.13;;;12.80;99.90;;;;;;5055046;28;20252;-52
2021/03/19 13:41:51;;;;;;;2.37;1.80;;;12.40;99.90;;;;;;5055198;28;20695;-51